createdAt,value
2022-10-16T00:01:48.155Z,12.10
2022-10-16T00:04:18.405Z,12.10
2022-10-16T00:06:46.538Z,12.10
2022-10-16T00:09:14.830Z,12.10
2022-10-16T00:11:44.693Z,12.20
2022-10-16T00:14:15.139Z,12.10
2022-10-16T00:16:44.063Z,12.10
2022-10-16T00:19:13.462Z,12.10
2022-10-16T00:21:41.359Z,12.10
2022-10-16T00:24:10.685Z,12.10
2022-10-16T00:26:39.789Z,12.10
2022-10-16T00:29:09.104Z,12.00
2022-10-16T00:31:37.216Z,12.00
2022-10-16T00:34:07.015Z,11.90
2022-10-16T00:36:36.733Z,11.80
2022-10-16T00:39:04.778Z,11.80
2022-10-16T00:41:32.996Z,11.70
2022-10-16T00:44:24.299Z,11.60
2022-10-16T00:46:52.713Z,11.60
2022-10-16T00:49:22.106Z,11.50
2022-10-16T00:51:54.934Z,11.40
2022-10-16T00:54:30.190Z,11.40
2022-10-16T00:57:00.465Z,11.40
2022-10-16T00:59:36.273Z,11.40
2022-10-16T01:02:07.035Z,11.30
2022-10-16T01:04:39.806Z,11.20
2022-10-16T01:07:38.186Z,11.20
2022-10-16T01:10:36.028Z,11.20
2022-10-16T01:13:12.477Z,11.10
2022-10-16T01:16:12.542Z,11.00
2022-10-16T01:18:52.269Z,11.00
2022-10-16T01:21:37.256Z,10.90
2022-10-16T01:24:28.097Z,10.90
2022-10-16T01:27:23.327Z,10.90
2022-10-16T01:30:03.333Z,10.90
2022-10-16T01:32:52.831Z,10.80
2022-10-16T01:35:28.053Z,10.80
2022-10-16T01:38:12.665Z,10.90
2022-10-16T01:40:45.395Z,10.90
2022-10-16T01:43:32.198Z,10.90
2022-10-16T01:46:02.236Z,11.00
2022-10-16T01:48:32.670Z,11.00
2022-10-16T01:51:20.769Z,11.00
2022-10-16T01:53:53.939Z,11.10
2022-10-16T01:56:23.722Z,11.10
2022-10-16T01:58:59.121Z,11.20
2022-10-16T02:01:31.611Z,11.20
2022-10-16T02:04:05.582Z,11.10
2022-10-16T02:06:33.839Z,11.10
2022-10-16T02:09:01.989Z,11.00
2022-10-16T02:11:30.570Z,11.00
2022-10-16T02:14:04.848Z,11.10
2022-10-16T02:16:47.119Z,11.10
2022-10-16T02:19:31.693Z,11.10
2022-10-16T02:22:28.885Z,11.10
2022-10-16T02:25:43.469Z,11.20
2022-10-16T02:28:54.808Z,11.20
2022-10-16T02:31:35.129Z,11.20
2022-10-16T02:34:06.007Z,11.30
2022-10-16T02:36:36.488Z,11.20
2022-10-16T02:39:06.448Z,11.20
2022-10-16T02:41:34.925Z,11.20
2022-10-16T02:44:03.287Z,11.30
2022-10-16T02:46:31.643Z,11.40
2022-10-16T02:48:59.567Z,11.30
2022-10-16T02:51:27.815Z,11.30
2022-10-16T02:53:57.681Z,11.30
2022-10-16T02:56:27.360Z,11.40
2022-10-16T02:59:36.087Z,11.40
2022-10-16T03:02:06.615Z,11.40
2022-10-16T03:04:34.581Z,11.50
2022-10-16T03:07:03.010Z,11.60
2022-10-16T03:09:31.225Z,11.70
2022-10-16T03:11:59.578Z,11.80
2022-10-16T03:14:32.197Z,11.80
2022-10-16T03:17:00.590Z,11.80
2022-10-16T03:19:28.632Z,11.80
2022-10-16T03:21:56.611Z,11.80
2022-10-16T03:24:24.609Z,11.80
2022-10-16T03:26:52.814Z,11.80
2022-10-16T03:29:21.099Z,11.80
2022-10-16T03:31:50.484Z,11.90
2022-10-16T03:34:18.582Z,11.90
2022-10-16T03:36:46.990Z,11.90
2022-10-16T03:39:15.243Z,12.00
2022-10-16T03:41:43.120Z,12.00
2022-10-16T03:44:11.331Z,12.00
2022-10-16T03:46:39.527Z,12.00
2022-10-16T03:49:09.765Z,12.00
2022-10-16T03:51:38.347Z,12.00
2022-10-16T03:54:06.696Z,12.10
2022-10-16T03:56:34.701Z,12.10
2022-10-16T03:59:02.813Z,12.10
2022-10-16T04:01:32.570Z,12.20
2022-10-16T04:04:00.676Z,12.20
2022-10-16T04:06:28.479Z,12.30
2022-10-16T04:08:57.127Z,12.30
2022-10-16T04:11:25.124Z,12.30
2022-10-16T04:13:53.158Z,12.30
2022-10-16T04:16:21.389Z,12.40
2022-10-16T04:18:50.963Z,12.30
2022-10-16T04:21:18.832Z,12.30
2022-10-16T04:23:46.994Z,12.20
2022-10-16T04:26:15.404Z,12.30
2022-10-16T04:28:44.166Z,12.30
2022-10-16T04:31:12.173Z,12.30
2022-10-16T04:33:44.051Z,12.30
2022-10-16T04:36:13.999Z,12.30
2022-10-16T04:38:41.886Z,12.20
2022-10-16T04:41:09.785Z,12.30
2022-10-16T04:43:38.001Z,12.30
2022-10-16T04:46:06.227Z,12.20
2022-10-16T04:48:34.235Z,12.20
2022-10-16T04:51:02.339Z,12.20
2022-10-16T04:53:30.512Z,12.10
2022-10-16T04:55:58.948Z,12.20
2022-10-16T04:58:27.298Z,12.20
2022-10-16T05:00:55.494Z,12.30
2022-10-16T05:03:24.250Z,12.30
2022-10-16T05:05:52.393Z,12.30
2022-10-16T05:08:20.718Z,12.20
2022-10-16T05:10:48.963Z,12.20
2022-10-16T05:13:17.065Z,12.30
2022-10-16T05:15:49.683Z,12.30
2022-10-16T05:18:18.305Z,12.30
2022-10-16T05:20:46.496Z,12.30
2022-10-16T05:23:19.320Z,12.30
2022-10-16T05:25:55.336Z,12.20
2022-10-16T05:28:26.928Z,12.30
2022-10-16T05:31:00.596Z,12.30
2022-10-16T05:33:28.730Z,12.30
2022-10-16T05:35:56.845Z,12.30
2022-10-16T05:38:24.955Z,12.20
2022-10-16T05:40:57.941Z,12.20
2022-10-16T05:43:31.439Z,12.10
2022-10-16T05:46:02.581Z,12.10
2022-10-16T05:48:31.406Z,12.10
2022-10-16T05:51:07.585Z,12.00
2022-10-16T05:53:38.031Z,11.90
2022-10-16T05:56:07.382Z,11.90
2022-10-16T05:58:38.674Z,12.00
2022-10-16T06:01:18.325Z,12.00
2022-10-16T06:03:46.621Z,12.10
2022-10-16T06:06:17.199Z,12.20
2022-10-16T06:08:46.660Z,12.30
2022-10-16T06:11:20.559Z,12.30
2022-10-16T06:13:57.566Z,12.30
2022-10-16T06:16:27.225Z,12.20
2022-10-16T06:18:57.077Z,12.30
2022-10-16T06:21:26.177Z,12.30
2022-10-16T06:23:56.051Z,12.20
2022-10-16T06:26:28.377Z,12.10
2022-10-16T06:29:01.099Z,12.10
2022-10-16T06:31:31.914Z,12.10
2022-10-16T06:34:00.887Z,12.20
2022-10-16T06:36:29.314Z,12.30
2022-10-16T06:38:57.752Z,12.40
2022-10-16T06:41:26.013Z,12.60
2022-10-16T06:43:53.853Z,12.70
2022-10-16T06:46:24.543Z,12.90
2022-10-16T06:48:53.896Z,13.00
2022-10-16T06:51:24.351Z,13.30
2022-10-16T06:54:03.236Z,13.50
2022-10-16T06:56:34.372Z,13.80
2022-10-16T06:59:03.316Z,13.90
2022-10-16T07:01:34.417Z,14.10
2022-10-16T07:04:03.386Z,14.30
2022-10-16T07:06:34.305Z,14.60
2022-10-16T07:09:06.820Z,14.80
2022-10-16T07:11:38.877Z,15.10
2022-10-16T07:14:23.641Z,15.30
2022-10-16T07:16:53.920Z,15.50
2022-10-16T07:19:22.291Z,15.60
2022-10-16T07:21:52.029Z,15.80
2022-10-16T07:24:18.934Z,15.80
2022-10-16T07:26:48.568Z,15.80
2022-10-16T07:29:18.292Z,15.90
2022-10-16T07:31:49.930Z,15.90
2022-10-16T07:34:19.333Z,15.90
2022-10-16T07:36:50.546Z,16.00
2022-10-16T07:39:18.738Z,16.10
2022-10-16T07:41:46.912Z,16.10
2022-10-16T07:44:16.958Z,16.20
2022-10-16T07:46:44.948Z,16.10
2022-10-16T07:49:13.064Z,16.10
2022-10-16T07:51:41.258Z,16.10
2022-10-16T07:54:10.491Z,16.50
2022-10-16T07:56:41.328Z,16.90
2022-10-16T07:59:11.110Z,17.30
2022-10-16T08:01:39.644Z,18.00
2022-10-16T08:04:07.043Z,18.70
2022-10-16T08:06:38.202Z,19.20
2022-10-16T08:09:09.550Z,19.80
2022-10-16T08:11:37.909Z,20.40
2022-10-16T08:14:04.982Z,20.70
2022-10-16T08:16:32.962Z,21.30
2022-10-16T08:18:59.990Z,21.70
2022-10-16T08:21:28.563Z,21.80
2022-10-16T08:23:58.369Z,22.20
2022-10-16T08:26:27.877Z,22.30
2022-10-16T08:28:55.807Z,22.40
2022-10-16T08:31:24.882Z,22.60
2022-10-16T08:33:53.208Z,22.60
2022-10-16T08:36:21.725Z,23.10
2022-10-16T08:38:50.501Z,23.70
2022-10-16T08:41:58.337Z,24.00
2022-10-16T08:44:43.793Z,24.30
2022-10-16T08:47:52.698Z,24.90
2022-10-16T08:50:29.079Z,24.80
2022-10-16T08:52:58.558Z,25.00
2022-10-16T08:55:43.629Z,24.80
2022-10-16T08:58:21.976Z,25.00
2022-10-16T09:00:54.538Z,25.10
2022-10-16T09:03:58.274Z,25.00
2022-10-16T09:06:51.551Z,24.60
2022-10-16T09:10:02.337Z,24.20
2022-10-16T09:12:41.059Z,24.00
2022-10-16T09:16:05.367Z,23.60
2022-10-16T09:18:48.431Z,23.50
2022-10-16T09:21:29.813Z,23.70
2022-10-16T09:24:10.642Z,23.70
2022-10-16T09:26:38.803Z,23.80
2022-10-16T09:29:06.085Z,23.70
2022-10-16T09:31:38.362Z,23.70
2022-10-16T09:34:09.134Z,24.00
2022-10-16T09:36:47.134Z,24.10
2022-10-16T09:39:15.301Z,24.00
2022-10-16T09:41:46.783Z,23.80
2022-10-16T09:44:23.361Z,23.90
2022-10-16T09:47:03.288Z,24.10
2022-10-16T09:49:31.377Z,24.10
2022-10-16T09:52:29.644Z,24.30
2022-10-16T09:55:14.603Z,24.40
2022-10-16T09:57:56.694Z,24.40
2022-10-16T10:00:25.416Z,24.40
2022-10-16T10:05:28.524Z,24.40
2022-10-16T10:08:08.841Z,24.20
2022-10-16T10:10:43.536Z,24.00
2022-10-16T10:13:21.436Z,24.20
2022-10-16T10:15:51.547Z,24.40
2022-10-16T10:18:23.558Z,24.90
2022-10-16T10:21:06.233Z,25.30
2022-10-16T10:23:34.482Z,25.10
2022-10-16T10:26:21.164Z,25.30
2022-10-16T10:29:01.019Z,25.60
2022-10-16T10:31:40.006Z,25.70
2022-10-16T10:34:34.664Z,26.00
2022-10-16T10:37:35.924Z,26.00
2022-10-16T10:40:11.082Z,26.20
2022-10-16T10:42:55.691Z,25.90
2022-10-16T10:45:29.143Z,26.00
2022-10-16T10:48:18.982Z,26.10
2022-10-16T10:51:04.717Z,26.20
2022-10-16T10:53:45.362Z,26.20
2022-10-16T10:56:39.237Z,26.10
2022-10-16T10:59:21.086Z,25.70
2022-10-16T11:02:06.875Z,25.60
2022-10-16T11:05:00.703Z,25.50
2022-10-16T11:07:34.989Z,25.40
2022-10-16T11:10:25.206Z,25.20
2022-10-16T11:13:07.843Z,25.40
2022-10-16T11:15:40.482Z,25.30
2022-10-16T11:18:31.320Z,25.20
2022-10-16T11:21:09.424Z,25.20
2022-10-16T11:23:41.564Z,24.80
2022-10-16T11:26:18.180Z,24.80
2022-10-16T11:28:51.415Z,24.90
2022-10-16T11:31:39.835Z,25.40
2022-10-16T11:34:23.537Z,25.80
2022-10-16T11:37:18.021Z,26.10
2022-10-16T11:39:46.147Z,26.50
2022-10-16T11:42:31.554Z,26.90
2022-10-16T11:45:31.980Z,27.70
2022-10-16T11:48:26.168Z,28.50
2022-10-16T11:50:57.810Z,29.00
2022-10-16T11:53:56.197Z,29.30
2022-10-16T11:56:25.454Z,28.70
2022-10-16T11:59:18.201Z,29.40
2022-10-16T12:01:50.702Z,29.90
2022-10-16T12:04:51.950Z,30.00
2022-10-16T12:07:26.586Z,29.80
2022-10-16T12:09:54.781Z,29.70
2022-10-16T12:12:37.865Z,29.20
2022-10-16T12:15:57.593Z,29.00
2022-10-16T12:18:24.167Z,29.40
2022-10-16T12:21:00.609Z,30.20
2022-10-16T12:23:28.196Z,30.40
2022-10-16T12:25:58.372Z,31.10
2022-10-16T12:28:33.953Z,31.10
2022-10-16T12:31:04.373Z,31.00
2022-10-16T12:33:52.184Z,31.10
2022-10-16T12:36:33.033Z,30.60
2022-10-16T12:39:02.440Z,31.00
2022-10-16T12:41:36.207Z,31.60
2022-10-16T12:44:04.357Z,30.80
2022-10-16T12:46:34.035Z,30.40
2022-10-16T12:49:22.317Z,30.80
2022-10-16T12:51:51.020Z,31.60
2022-10-16T12:54:50.556Z,32.10
2022-10-16T12:57:35.634Z,33.10
2022-10-16T13:00:29.813Z,32.80
2022-10-16T13:03:27.385Z,32.20
2022-10-16T13:06:23.615Z,32.40
2022-10-16T13:09:23.052Z,31.90
2022-10-16T13:12:01.972Z,32.60
2022-10-16T13:14:51.501Z,32.80
2022-10-16T13:17:28.196Z,33.90
2022-10-16T13:20:24.099Z,33.20
2022-10-16T13:23:04.919Z,33.10
2022-10-16T13:25:49.579Z,32.70
2022-10-16T13:28:20.873Z,32.70
2022-10-16T13:30:58.363Z,32.50
2022-10-16T13:33:46.274Z,32.20
2022-10-16T13:36:36.927Z,32.50
2022-10-16T13:39:22.154Z,32.50
2022-10-16T13:44:46.922Z,33.90
2022-10-16T13:47:20.682Z,34.40
2022-10-16T13:49:59.863Z,33.70
2022-10-16T13:52:28.046Z,33.40
2022-10-16T13:55:00.880Z,32.80
2022-10-16T13:57:31.440Z,32.80
2022-10-16T14:00:24.476Z,32.30
2022-10-16T14:03:16.212Z,32.10
2022-10-16T14:06:04.732Z,31.90
2022-10-16T14:08:33.283Z,31.50
2022-10-16T14:11:02.425Z,31.00
2022-10-16T14:13:39.440Z,30.60
2022-10-16T14:16:11.191Z,29.50
2022-10-16T14:18:41.015Z,28.40
2022-10-16T14:21:15.528Z,27.60
2022-10-16T14:23:44.665Z,27.20
2022-10-16T14:26:14.396Z,26.60
2022-10-16T14:28:44.425Z,26.00
2022-10-16T14:31:32.319Z,25.50
2022-10-16T14:34:01.026Z,25.30
2022-10-16T14:36:30.598Z,25.10
2022-10-16T14:39:05.392Z,25.00
2022-10-16T14:41:42.911Z,24.80
2022-10-16T14:44:14.066Z,24.50
2022-10-16T14:46:43.734Z,24.30
2022-10-16T14:49:11.283Z,24.00
2022-10-16T14:51:45.839Z,23.90
2022-10-16T14:54:15.287Z,23.80
2022-10-16T14:56:57.975Z,23.80
2022-10-16T14:59:40.721Z,23.60
2022-10-16T15:02:30.393Z,23.60
2022-10-16T15:04:58.771Z,23.30
2022-10-16T15:07:27.571Z,23.20
2022-10-16T15:09:58.042Z,23.00
2022-10-16T15:12:26.459Z,22.80
2022-10-16T15:14:54.234Z,22.60
2022-10-16T15:17:23.200Z,22.30
2022-10-16T15:19:50.318Z,21.90
2022-10-16T15:22:24.374Z,21.70
2022-10-16T15:24:52.270Z,21.60
2022-10-16T15:27:29.005Z,21.40
2022-10-16T15:29:56.274Z,21.10
2022-10-16T15:32:24.557Z,21.00
2022-10-16T15:34:52.401Z,20.90
2022-10-16T15:37:20.443Z,20.70
2022-10-16T15:39:48.424Z,20.50
2022-10-16T15:42:15.759Z,20.30
2022-10-16T15:44:44.051Z,20.10
2022-10-16T15:47:14.411Z,20.00
2022-10-16T15:49:42.415Z,19.80
2022-10-16T15:52:09.236Z,19.60
2022-10-16T15:54:37.334Z,19.50
2022-10-16T15:57:07.380Z,19.20
2022-10-16T15:59:37.289Z,19.10
2022-10-16T16:02:05.854Z,18.90
2022-10-16T16:04:49.559Z,18.70
2022-10-16T16:07:19.084Z,18.50
2022-10-16T16:09:46.967Z,18.30
2022-10-16T16:12:14.801Z,18.20
2022-10-16T16:14:43.671Z,18.00
2022-10-16T16:17:11.283Z,17.80
2022-10-16T16:19:39.334Z,17.70
2022-10-16T16:22:09.512Z,17.50
2022-10-16T16:24:42.311Z,17.40
2022-10-16T16:27:10.714Z,17.20
2022-10-16T16:29:39.287Z,17.00
2022-10-16T16:32:06.315Z,16.90
2022-10-16T16:34:35.923Z,16.80
2022-10-16T16:37:03.394Z,16.60
2022-10-16T16:39:31.672Z,16.50
2022-10-16T16:41:59.530Z,16.40
2022-10-16T16:44:29.994Z,16.30
2022-10-16T16:46:58.330Z,16.10
2022-10-16T16:49:26.367Z,16.00
2022-10-16T16:51:55.152Z,15.90
2022-10-16T16:54:22.580Z,15.80
2022-10-16T16:56:51.164Z,15.70
2022-10-16T16:59:22.761Z,15.60
2022-10-16T17:01:56.477Z,15.50
2022-10-16T17:04:25.533Z,15.50
2022-10-16T17:06:56.808Z,15.40
2022-10-16T17:09:26.608Z,15.30
2022-10-16T17:11:54.343Z,15.10
2022-10-16T17:14:22.831Z,14.90
2022-10-16T17:16:50.632Z,14.80
2022-10-16T17:19:21.071Z,14.70
2022-10-16T17:21:51.309Z,14.60
2022-10-16T17:24:21.384Z,14.60
2022-10-16T17:26:50.107Z,14.50
2022-10-16T17:29:18.758Z,14.50
2022-10-16T17:31:50.022Z,14.50
2022-10-16T17:34:19.841Z,14.40
2022-10-16T17:36:48.441Z,14.40
2022-10-16T17:39:20.146Z,14.30
2022-10-16T17:41:53.506Z,14.20
2022-10-16T17:44:21.956Z,14.20
2022-10-16T17:46:54.639Z,14.10
2022-10-16T17:51:54.526Z,13.90
2022-10-16T17:54:22.810Z,13.90
2022-10-16T17:56:50.977Z,14.00
2022-10-16T17:59:22.968Z,13.90
2022-10-16T18:01:51.354Z,13.80
2022-10-16T18:04:19.946Z,13.80
2022-10-16T18:06:48.690Z,13.70
2022-10-16T18:09:19.548Z,13.70
2022-10-16T18:11:49.155Z,13.60
2022-10-16T18:14:28.776Z,13.60
2022-10-16T18:16:58.683Z,13.50
2022-10-16T18:19:27.867Z,13.50
2022-10-16T18:21:55.945Z,13.40
2022-10-16T18:24:26.592Z,13.40
2022-10-16T18:26:58.563Z,13.20
2022-10-16T18:29:27.531Z,13.20
2022-10-16T18:31:56.310Z,13.20
2022-10-16T18:34:27.855Z,13.20
2022-10-16T18:36:57.552Z,13.20
2022-10-16T18:39:25.905Z,13.20
2022-10-16T18:41:59.817Z,13.20
2022-10-16T18:44:30.833Z,13.10
2022-10-16T18:46:59.213Z,13.00
2022-10-16T18:49:28.898Z,13.00
2022-10-16T18:52:00.541Z,12.90
2022-10-16T18:54:32.179Z,12.90
2022-10-16T18:57:02.307Z,12.90
2022-10-16T18:59:30.545Z,12.80
2022-10-16T19:01:58.647Z,12.80
2022-10-16T19:04:29.387Z,12.80
2022-10-16T19:06:57.768Z,12.80
2022-10-16T19:09:26.174Z,12.70
2022-10-16T19:11:54.916Z,12.70
2022-10-16T19:14:22.899Z,12.80
2022-10-16T19:16:50.850Z,12.80
2022-10-16T19:19:19.905Z,12.90
2022-10-16T19:21:50.915Z,12.90
2022-10-16T19:24:19.914Z,12.90
2022-10-16T19:26:47.815Z,12.80
2022-10-16T19:29:17.621Z,12.90
2022-10-16T19:31:45.774Z,12.90
2022-10-16T19:34:13.755Z,12.90
2022-10-16T19:36:42.126Z,12.90
2022-10-16T19:41:48.493Z,12.60
2022-10-16T19:44:17.773Z,12.60
2022-10-16T19:46:48.404Z,12.60
2022-10-16T19:49:20.900Z,12.50
2022-10-16T19:51:51.621Z,12.40
2022-10-16T19:54:20.813Z,12.40
2022-10-16T19:56:48.813Z,12.30
2022-10-16T19:59:19.241Z,12.30
2022-10-16T20:01:47.663Z,12.30
2022-10-16T20:04:16.929Z,12.30
2022-10-16T20:06:46.059Z,12.20
2022-10-16T20:09:14.712Z,12.10
2022-10-16T20:11:42.870Z,12.00
2022-10-16T20:14:11.352Z,12.00
2022-10-16T20:16:41.137Z,11.90
2022-10-16T20:19:10.341Z,12.00
2022-10-16T20:21:39.136Z,12.00
2022-10-16T20:24:08.377Z,12.10
2022-10-16T20:26:38.972Z,12.10
2022-10-16T20:29:07.619Z,12.10
2022-10-16T20:31:37.007Z,12.10
2022-10-16T20:34:08.135Z,12.10
2022-10-16T20:36:38.084Z,12.00
2022-10-16T20:39:07.833Z,11.90
2022-10-16T20:41:36.854Z,11.80
2022-10-16T20:44:05.022Z,11.70
2022-10-16T20:46:33.451Z,11.70
2022-10-16T20:49:10.782Z,11.70
2022-10-16T20:51:49.736Z,11.60
2022-10-16T20:54:17.724Z,11.50
2022-10-16T20:56:48.251Z,11.40
2022-10-16T20:59:16.435Z,11.30
2022-10-16T21:01:44.723Z,11.30
2022-10-16T21:04:12.916Z,11.20
2022-10-16T21:06:42.128Z,11.10
2022-10-16T21:09:11.402Z,11.10
2022-10-16T21:11:39.745Z,11.10
2022-10-16T21:14:08.664Z,11.10
2022-10-16T21:16:37.413Z,11.10
2022-10-16T21:19:07.048Z,11.10
2022-10-16T21:21:38.601Z,11.20
2022-10-16T21:24:11.921Z,11.30
2022-10-16T21:26:44.752Z,11.30
2022-10-16T21:29:13.454Z,11.40
2022-10-16T21:35:04.058Z,11.60
2022-10-16T21:37:38.520Z,11.80
2022-10-16T21:40:07.649Z,11.90
2022-10-16T21:42:35.770Z,11.80
2022-10-16T21:45:04.120Z,11.80
2022-10-16T21:47:33.958Z,11.80
2022-10-16T21:50:02.101Z,11.80
2022-10-16T21:52:31.772Z,11.70
2022-10-16T21:54:59.991Z,11.80
2022-10-16T21:57:29.338Z,11.90
2022-10-16T21:59:57.930Z,12.10
2022-10-16T22:02:26.025Z,12.00
2022-10-16T22:04:54.083Z,12.00
2022-10-16T22:07:21.972Z,12.00
2022-10-16T22:09:50.399Z,11.80
2022-10-16T22:12:20.354Z,11.80
2022-10-16T22:14:48.492Z,11.70
2022-10-16T22:17:18.435Z,11.60
2022-10-16T22:19:46.659Z,11.50
2022-10-16T22:22:14.562Z,11.50
2022-10-16T22:24:42.831Z,11.40
2022-10-16T22:27:11.071Z,11.30
2022-10-16T22:29:39.249Z,11.20
2022-10-16T22:32:07.796Z,11.20
2022-10-16T22:34:36.079Z,11.10
2022-10-16T22:37:04.312Z,11.00
2022-10-16T22:39:32.731Z,11.00
2022-10-16T22:42:04.234Z,10.90
2022-10-16T22:44:32.455Z,10.80
2022-10-16T22:47:00.335Z,10.70
2022-10-16T22:49:28.862Z,10.70
2022-10-16T22:51:56.741Z,10.60
2022-10-16T22:54:24.926Z,10.50
2022-10-16T22:56:53.032Z,10.40
2022-10-16T22:59:25.260Z,10.20
2022-10-16T23:01:54.441Z,10.10
2022-10-16T23:04:22.345Z,10.10
2022-10-16T23:06:51.040Z,10.10
2022-10-16T23:09:19.224Z,10.20
2022-10-16T23:11:47.358Z,10.20
2022-10-16T23:14:20.977Z,10.30
2022-10-16T23:16:49.658Z,10.30
2022-10-16T23:19:17.643Z,10.30
2022-10-16T23:21:47.542Z,10.30
2022-10-16T23:24:15.515Z,10.30
2022-10-16T23:26:43.548Z,10.30
2022-10-16T23:29:14.077Z,10.40
2022-10-16T23:31:42.418Z,10.30
2022-10-16T23:34:10.762Z,10.30
2022-10-16T23:36:38.725Z,10.30
2022-10-16T23:39:06.624Z,10.30
2022-10-16T23:41:36.245Z,10.30
2022-10-16T23:44:06.058Z,10.30
2022-10-16T23:46:34.228Z,10.30
2022-10-16T23:49:06.134Z,10.20
2022-10-16T23:51:34.309Z,10.20
2022-10-16T23:54:02.333Z,10.20
2022-10-16T23:56:32.241Z,10.20
2022-10-16T23:59:04.381Z,10.20
